Boston, Massachusetts
Current Conditions -  °F | °C
As of 11:54 PM on Wednesday 26 Nov 2014 (Local Time) from KBOS Reporting Station
Light Snow Light Snow  
Wind Chill: -4°   Ceiling: 1100
Heat Index:   Visibility: 2mi
Dew Point: -1°   Wind: 15mph
Humidity: 89%   Direction: 340°NNW
Pressure: 29.69"   Gusts: 25mph
Location:  42.36°N, 71.06°W
Report Text: KBOS 270454Z 34013G22KT 2SM -RASN BR BKN011 OVC017 01/M01 A2969 RMK AO2 PK WND 36029/0404 SFC VIS 4 RAB29 SLP052 P0000 T00111006 401000006 $
Loading
Personal Weather Stations






























Interactive Weather Map New forecast layout! Learn more

10-Day Weather Forecast

Advertisements
Track Severe Weather on mobile